sensor_id;sensor_type;location;lat;lon;timestamp;pressure;altitude;pressure_sealevel;temperature;humidity
11678;BME280;5895;41.950;24.372;2022-12-18T00:01:15;87333.31;;;8.64;100.00
11678;BME280;5895;41.950;24.372;2022-12-18T00:03:43;87326.94;;;8.60;99.78
11678;BME280;5895;41.950;24.372;2022-12-18T00:06:10;87330.31;;;8.61;98.95
11678;BME280;5895;41.950;24.372;2022-12-18T00:08:41;87340.66;;;8.61;100.00
11678;BME280;5895;41.950;24.372;2022-12-18T00:11:11;87343.25;;;8.61;99.41
11678;BME280;5895;41.950;24.372;2022-12-18T00:13:39;87345.63;;;8.62;99.64
11678;BME280;5895;41.950;24.372;2022-12-18T00:16:11;87349.59;;;8.65;98.83
11678;BME280;5895;41.950;24.372;2022-12-18T00:18:40;87341.25;;;8.63;98.80
11678;BME280;5895;41.950;24.372;2022-12-18T00:21:09;87342.63;;;8.65;98.70
11678;BME280;5895;41.950;24.372;2022-12-18T00:23:37;87343.44;;;8.66;99.68
11678;BME280;5895;41.950;24.372;2022-12-18T00:26:09;87346.59;;;8.68;99.46
11678;BME280;5895;41.950;24.372;2022-12-18T00:28:37;87354.38;;;8.68;99.66
11678;BME280;5895;41.950;24.372;2022-12-18T00:31:06;87355.94;;;8.69;99.12
11678;BME280;5895;41.950;24.372;2022-12-18T00:33:34;87358.94;;;8.66;100.00
11678;BME280;5895;41.950;24.372;2022-12-18T00:36:02;87360.34;;;8.62;99.57
11678;BME280;5895;41.950;24.372;2022-12-18T00:38:31;87359.16;;;8.64;99.56
11678;BME280;5895;41.950;24.372;2022-12-18T00:40:58;87356.75;;;8.63;100.00
11678;BME280;5895;41.950;24.372;2022-12-18T00:43:28;87356.75;;;8.63;100.00
11678;BME280;5895;41.950;24.372;2022-12-18T00:45:54;87367.09;;;8.63;99.66
11678;BME280;5895;41.950;24.372;2022-12-18T00:48:22;87357.75;;;8.62;100.00
11678;BME280;5895;41.950;24.372;2022-12-18T00:50:50;87356.19;;;8.61;99.80
11678;BME280;5895;41.950;24.372;2022-12-18T00:53:17;87352.78;;;8.60;99.36
11678;BME280;5895;41.950;24.372;2022-12-18T00:55:45;87352.00;;;8.60;99.72
11678;BME280;5895;41.950;24.372;2022-12-18T00:58:14;87345.25;;;8.59;99.64
11678;BME280;5895;41.950;24.372;2022-12-18T01:00:44;87351.22;;;8.59;100.00
11678;BME280;5895;41.950;24.372;2022-12-18T01:03:13;87356.97;;;8.55;100.00
11678;BME280;5895;41.950;24.372;2022-12-18T01:05:41;87358.38;;;8.51;100.00
11678;BME280;5895;41.950;24.372;2022-12-18T01:08:09;87357.19;;;8.46;99.95
11678;BME280;5895;41.950;24.372;2022-12-18T01:10:39;87346.47;;;8.43;100.00
11678;BME280;5895;41.950;24.372;2022-12-18T01:13:07;87352.44;;;8.43;99.91
11678;BME280;5895;41.950;24.372;2022-12-18T01:15:35;87348.44;;;8.41;100.00
11678;BME280;5895;41.950;24.372;2022-12-18T01:18:04;87349.66;;;8.38;100.00
11678;BME280;5895;41.950;24.372;2022-12-18T01:20:31;87350.00;;;8.35;100.00
11678;BME280;5895;41.950;24.372;2022-12-18T01:22:58;87353.00;;;8.32;100.00
11678;BME280;5895;41.950;24.372;2022-12-18T01:25:26;87344.63;;;8.30;100.00
11678;BME280;5895;41.950;24.372;2022-12-18T01:27:53;87347.63;;;8.27;100.00
11678;BME280;5895;41.950;24.372;2022-12-18T01:30:21;87343.66;;;8.25;100.00
11678;BME280;5895;41.950;24.372;2022-12-18T01:32:48;87348.44;;;8.21;99.70
11678;BME280;5895;41.950;24.372;2022-12-18T01:35:18;87357.00;;;8.15;99.77
11678;BME280;5895;41.950;24.372;2022-12-18T01:37:45;87356.19;;;8.08;99.77
11678;BME280;5895;41.950;24.372;2022-12-18T01:40:13;87359.97;;;8.05;100.00
11678;BME280;5895;41.950;24.372;2022-12-18T01:42:40;87357.78;;;8.02;99.87
11678;BME280;5895;41.950;24.372;2022-12-18T01:45:23;87357.59;;;7.97;100.00
11678;BME280;5895;41.950;24.372;2022-12-18T01:47:53;87359.56;;;7.95;99.37
11678;BME280;5895;41.950;24.372;2022-12-18T01:50:25;87357.56;;;7.90;99.47
11678;BME280;5895;41.950;24.372;2022-12-18T01:52:56;87360.16;;;7.84;98.91
11678;BME280;5895;41.950;24.372;2022-12-18T01:55:26;87359.78;;;7.80;98.96
11678;BME280;5895;41.950;24.372;2022-12-18T01:57:57;87369.91;;;7.75;99.50
11678;BME280;5895;41.950;24.372;2022-12-18T02:00:27;87365.31;;;7.71;99.04
11678;BME280;5895;41.950;24.372;2022-12-18T02:02:55;87371.06;;;7.66;98.82
11678;BME280;5895;41.950;24.372;2022-12-18T02:05:30;87375.03;;;7.62;98.24
11678;BME280;5895;41.950;24.372;2022-12-18T02:08:09;87367.06;;;7.57;98.55
11678;BME280;5895;41.950;24.372;2022-12-18T02:10:44;87369.06;;;7.55;99.47
11678;BME280;5895;41.950;24.372;2022-12-18T02:13:19;87373.41;;;7.48;98.15
11678;BME280;5895;41.950;24.372;2022-12-18T02:15:54;87368.25;;;7.41;97.75
11678;BME280;5895;41.950;24.372;2022-12-18T02:18:29;87376.56;;;7.36;99.09
11678;BME280;5895;41.950;24.372;2022-12-18T02:21:08;87378.53;;;7.34;98.93
11678;BME280;5895;41.950;24.372;2022-12-18T02:23:49;87378.94;;;7.31;98.71
11678;BME280;5895;41.950;24.372;2022-12-18T02:26:26;87378.50;;;7.21;97.97
11678;BME280;5895;41.950;24.372;2022-12-18T02:29:00;87380.25;;;7.14;98.83
11678;BME280;5895;41.950;24.372;2022-12-18T02:31:32;87376.47;;;7.10;98.55
11678;BME280;5895;41.950;24.372;2022-12-18T02:34:04;87375.25;;;7.06;98.71
11678;BME280;5895;41.950;24.372;2022-12-18T02:36:36;87374.66;;;7.04;98.48
11678;BME280;5895;41.950;24.372;2022-12-18T02:39:09;87378.22;;;7.03;97.91
11678;BME280;5895;41.950;24.372;2022-12-18T02:41:39;87380.19;;;7.01;98.81
11678;BME280;5895;41.950;24.372;2022-12-18T02:44:09;87382.19;;;6.99;99.36
11678;BME280;5895;41.950;24.372;2022-12-18T02:46:41;87381.38;;;6.98;99.07
11678;BME280;5895;41.950;24.372;2022-12-18T02:49:23;87376.78;;;6.94;98.29
11678;BME280;5895;41.950;24.372;2022-12-18T02:51:54;87379.78;;;6.91;98.45
11678;BME280;5895;41.950;24.372;2022-12-18T02:54:37;87378.94;;;6.90;99.57
11678;BME280;5895;41.950;24.372;2022-12-18T02:57:16;87377.19;;;6.91;99.49
11678;BME280;5895;41.950;24.372;2022-12-18T02:59:52;87380.75;;;6.89;99.59
11678;BME280;5895;41.950;24.372;2022-12-18T03:02:25;87386.69;;;6.90;99.24
11678;BME280;5895;41.950;24.372;2022-12-18T03:04:59;87388.31;;;6.91;99.61
11678;BME280;5895;41.950;24.372;2022-12-18T03:07:34;87385.91;;;6.89;99.89
11678;BME280;5895;41.950;24.372;2022-12-18T03:10:06;87389.91;;;6.92;100.00
11678;BME280;5895;41.950;24.372;2022-12-18T03:12:40;87388.31;;;6.91;100.00
11678;BME280;5895;41.950;24.372;2022-12-18T03:15:10;87387.50;;;6.91;100.00
11678;BME280;5895;41.950;24.372;2022-12-18T03:17:42;87386.69;;;6.90;100.00
11678;BME280;5895;41.950;24.372;2022-12-18T03:20:15;87382.53;;;6.89;100.00
11678;BME280;5895;41.950;24.372;2022-12-18T03:22:46;87386.88;;;6.88;100.00
11678;BME280;5895;41.950;24.372;2022-12-18T03:25:17;87382.72;;;6.87;100.00
11678;BME280;5895;41.950;24.372;2022-12-18T03:27:49;87390.47;;;6.87;100.00
11678;BME280;5895;41.950;24.372;2022-12-18T03:30:19;87393.41;;;6.84;100.00
11678;BME280;5895;41.950;24.372;2022-12-18T03:32:48;87402.72;;;6.79;100.00
11678;BME280;5895;41.950;24.372;2022-12-18T03:35:20;87407.69;;;6.80;100.00
11678;BME280;5895;41.950;24.372;2022-12-18T03:37:49;87404.13;;;6.81;100.00
11678;BME280;5895;41.950;24.372;2022-12-18T03:40:17;87410.28;;;6.80;100.00
11678;BME280;5895;41.950;24.372;2022-12-18T03:42:51;87406.50;;;6.83;100.00
11678;BME280;5895;41.950;24.372;2022-12-18T03:45:23;87410.88;;;6.82;100.00
11678;BME280;5895;41.950;24.372;2022-12-18T03:47:59;87417.63;;;6.83;100.00
11678;BME280;5895;41.950;24.372;2022-12-18T03:50:37;87423.41;;;6.85;100.00
11678;BME280;5895;41.950;24.372;2022-12-18T03:53:16;87425.59;;;6.88;100.00
11678;BME280;5895;41.950;24.372;2022-12-18T03:55:48;87423.19;;;6.87;100.00
11678;BME280;5895;41.950;24.372;2022-12-18T03:58:22;87422.00;;;6.89;100.00
11678;BME280;5895;41.950;24.372;2022-12-18T04:00:52;87428.78;;;6.91;100.00
11678;BME280;5895;41.950;24.372;2022-12-18T04:03:23;87429.38;;;6.93;100.00
11678;BME280;5895;41.950;24.372;2022-12-18T04:05:51;87436.13;;;6.94;100.00
11678;BME280;5895;41.950;24.372;2022-12-18T04:08:21;87424.81;;;6.95;100.00
11678;BME280;5895;41.950;24.372;2022-12-18T04:10:49;87428.38;;;6.94;100.00
11678;BME280;5895;41.950;24.372;2022-12-18T04:13:23;87429.19;;;6.94;100.00
11678;BME280;5895;41.950;24.372;2022-12-18T04:15:51;87429.97;;;6.95;100.00
11678;BME280;5895;41.950;24.372;2022-12-18T04:18:19;87420.66;;;6.94;100.00
11678;BME280;5895;41.950;24.372;2022-12-18T04:20:46;87424.81;;;6.95;100.00
11678;BME280;5895;41.950;24.372;2022-12-18T04:23:14;87425.25;;;6.98;100.00
11678;BME280;5895;41.950;24.372;2022-12-18T04:25:41;87428.03;;;6.97;100.00
11678;BME280;5895;41.950;24.372;2022-12-18T04:28:09;87434.16;;;6.96;100.00
11678;BME280;5895;41.950;24.372;2022-12-18T04:30:38;87439.50;;;6.94;100.00
11678;BME280;5895;41.950;24.372;2022-12-18T04:33:08;87437.47;;;6.89;100.00
11678;BME280;5895;41.950;24.372;2022-12-18T04:35:36;87437.31;;;6.91;100.00
11678;BME280;5895;41.950;24.372;2022-12-18T04:38:05;87440.69;;;6.92;100.00
11678;BME280;5895;41.950;24.372;2022-12-18T04:40:34;87439.09;;;6.91;100.00
11678;BME280;5895;41.950;24.372;2022-12-18T04:43:01;87441.69;;;6.91;100.00
11678;BME280;5895;41.950;24.372;2022-12-18T04:45:30;87442.28;;;6.93;100.00
11678;BME280;5895;41.950;24.372;2022-12-18T04:47:59;87438.72;;;6.94;100.00
11678;BME280;5895;41.950;24.372;2022-12-18T04:50:27;87441.88;;;6.96;100.00
11678;BME280;5895;41.950;24.372;2022-12-18T04:52:54;87446.69;;;6.99;100.00
11678;BME280;5895;41.950;24.372;2022-12-18T04:55:22;87456.63;;;7.02;100.00
11678;BME280;5895;41.950;24.372;2022-12-18T04:57:50;87455.81;;;7.01;100.00
11678;BME280;5895;41.950;24.372;2022-12-18T05:00:18;87458.00;;;7.04;100.00
11678;BME280;5895;41.950;24.372;2022-12-18T05:02:45;87456.81;;;7.07;100.00
11678;BME280;5895;41.950;24.372;2022-12-18T05:05:14;87458.25;;;7.09;100.00
11678;BME280;5895;41.950;24.372;2022-12-18T05:07:42;87463.59;;;7.08;100.00
11678;BME280;5895;41.950;24.372;2022-12-18T05:10:10;87469.72;;;7.07;100.00
11678;BME280;5895;41.950;24.372;2022-12-18T05:12:37;87462.97;;;7.06;100.00
11678;BME280;5895;41.950;24.372;2022-12-18T05:15:24;87474.50;;;7.03;100.00
11678;BME280;5895;41.950;24.372;2022-12-18T05:17:51;87469.53;;;7.02;100.00
11678;BME280;5895;41.950;24.372;2022-12-18T05:20:20;87462.16;;;6.99;100.00
11678;BME280;5895;41.950;24.372;2022-12-18T05:22:48;87477.44;;;7.00;100.00
11678;BME280;5895;41.950;24.372;2022-12-18T05:25:16;87483.59;;;6.99;100.00
11678;BME280;5895;41.950;24.372;2022-12-18T05:27:44;87487.94;;;6.99;100.00
11678;BME280;5895;41.950;24.372;2022-12-18T05:30:12;87481.78;;;7.00;100.00
11678;BME280;5895;41.950;24.372;2022-12-18T05:32:40;87484.38;;;7.00;100.00
11678;BME280;5895;41.950;24.372;2022-12-18T05:35:09;87493.69;;;7.01;100.00
11678;BME280;5895;41.950;24.372;2022-12-18T05:37:38;87488.94;;;6.98;100.00
11678;BME280;5895;41.950;24.372;2022-12-18T05:40:07;87492.75;;;7.02;100.00
11678;BME280;5895;41.950;24.372;2022-12-18T05:42:34;87504.44;;;7.04;100.00
11678;BME280;5895;41.950;24.372;2022-12-18T05:45:03;87513.97;;;7.04;100.00
11678;BME280;5895;41.950;24.372;2022-12-18T05:47:30;87511.59;;;7.02;100.00
11678;BME280;5895;41.950;24.372;2022-12-18T05:49:58;87508.81;;;7.04;100.00
11678;BME280;5895;41.950;24.372;2022-12-18T05:52:25;87502.66;;;7.05;100.00
11678;BME280;5895;41.950;24.372;2022-12-18T05:54:54;87510.41;;;7.05;100.00
11678;BME280;5895;41.950;24.372;2022-12-18T05:57:22;87515.34;;;7.00;100.00
11678;BME280;5895;41.950;24.372;2022-12-18T05:59:49;87515.72;;;6.97;100.00
11678;BME280;5895;41.950;24.372;2022-12-18T06:02:17;87519.28;;;6.96;100.00
11678;BME280;5895;41.950;24.372;2022-12-18T06:04:46;87518.47;;;6.95;100.00
11678;BME280;5895;41.950;24.372;2022-12-18T06:07:14;87528.00;;;6.95;100.00
11678;BME280;5895;41.950;24.372;2022-12-18T06:09:41;87523.47;;;6.97;100.00
11678;BME280;5895;41.950;24.372;2022-12-18T06:12:10;87524.06;;;6.99;100.00
11678;BME280;5895;41.950;24.372;2022-12-18T06:14:38;87525.25;;;6.96;100.00
11678;BME280;5895;41.950;24.372;2022-12-18T06:17:05;87539.53;;;6.99;100.00
11678;BME280;5895;41.950;24.372;2022-12-18T06:19:33;87539.19;;;7.02;100.00
11678;BME280;5895;41.950;24.372;2022-12-18T06:22:00;87538.00;;;7.04;100.00
11678;BME280;5895;41.950;24.372;2022-12-18T06:24:28;87542.78;;;7.07;100.00
11678;BME280;5895;41.950;24.372;2022-12-18T06:26:55;87544.19;;;7.10;100.00
11678;BME280;5895;41.950;24.372;2022-12-18T06:29:25;87546.41;;;7.13;100.00
11678;BME280;5895;41.950;24.372;2022-12-18T06:31:53;87540.06;;;7.15;100.00
11678;BME280;5895;41.950;24.372;2022-12-18T06:34:21;87550.00;;;7.19;100.00
11678;BME280;5895;41.950;24.372;2022-12-18T06:36:48;87550.41;;;7.22;100.00
11678;BME280;5895;41.950;24.372;2022-12-18T06:39:16;87557.78;;;7.25;100.00
11678;BME280;5895;41.950;24.372;2022-12-18T06:41:43;87572.28;;;7.26;100.00
11678;BME280;5895;41.950;24.372;2022-12-18T06:44:11;87564.53;;;7.26;100.00
11678;BME280;5895;41.950;24.372;2022-12-18T06:46:40;87570.28;;;7.28;100.00
11678;BME280;5895;41.950;24.372;2022-12-18T06:49:07;87576.69;;;7.32;100.00
11678;BME280;5895;41.950;24.372;2022-12-18T06:51:36;87569.53;;;7.34;100.00
11678;BME280;5895;41.950;24.372;2022-12-18T06:54:03;87562.66;;;7.41;100.00
11678;BME280;5895;41.950;24.372;2022-12-18T06:56:31;87577.16;;;7.42;100.00
11678;BME280;5895;41.950;24.372;2022-12-18T06:58:58;87568.41;;;7.43;100.00
11678;BME280;5895;41.950;24.372;2022-12-18T07:01:26;87572.56;;;7.45;100.00
11678;BME280;5895;41.950;24.372;2022-12-18T07:03:56;87573.19;;;7.47;100.00
11678;BME280;5895;41.950;24.372;2022-12-18T07:06:25;87573.59;;;7.50;100.00
11678;BME280;5895;41.950;24.372;2022-12-18T07:08:53;87579.19;;;7.54;100.00
11678;BME280;5895;41.950;24.372;2022-12-18T07:11:21;87579.78;;;7.56;100.00
11678;BME280;5895;41.950;24.372;2022-12-18T07:13:49;87581.16;;;7.52;100.00
11678;BME280;5895;41.950;24.372;2022-12-18T07:16:18;87586.13;;;7.47;100.00
11678;BME280;5895;41.950;24.372;2022-12-18T07:18:45;87583.91;;;7.43;100.00
11678;BME280;5895;41.950;24.372;2022-12-18T07:21:16;87584.69;;;7.44;100.00
11678;BME280;5895;41.950;24.372;2022-12-18T07:23:44;87585.50;;;7.45;100.00
11678;BME280;5895;41.950;24.372;2022-12-18T07:26:16;87589.66;;;7.46;100.00
11678;BME280;5895;41.950;24.372;2022-12-18T07:28:44;87590.28;;;7.48;100.00
11678;BME280;5895;41.950;24.372;2022-12-18T07:31:13;87603.00;;;7.49;100.00
11678;BME280;5895;41.950;24.372;2022-12-18T07:33:41;87607.72;;;7.46;100.00
11678;BME280;5895;41.950;24.372;2022-12-18T07:36:10;87605.16;;;7.46;100.00
11678;BME280;5895;41.950;24.372;2022-12-18T07:38:39;87606.13;;;7.45;100.00
11678;BME280;5895;41.950;24.372;2022-12-18T07:41:09;87604.19;;;7.47;100.00
11678;BME280;5895;41.950;24.372;2022-12-18T07:43:37;87602.16;;;7.42;100.00
11678;BME280;5895;41.950;24.372;2022-12-18T07:46:05;87615.25;;;7.40;100.00
11678;BME280;5895;41.950;24.372;2022-12-18T07:48:32;87608.13;;;7.42;100.00
11678;BME280;5895;41.950;24.372;2022-12-18T07:51:00;87618.44;;;7.42;100.00
11678;BME280;5895;41.950;24.372;2022-12-18T07:53:28;87609.72;;;7.43;100.00
11678;BME280;5895;41.950;24.372;2022-12-18T07:55:58;87619.69;;;7.47;100.00
11678;BME280;5895;41.950;24.372;2022-12-18T07:58:26;87622.06;;;7.48;100.00
11678;BME280;5895;41.950;24.372;2022-12-18T08:00:53;87632.00;;;7.51;100.00
11678;BME280;5895;41.950;24.372;2022-12-18T08:03:21;87629.25;;;7.53;100.00
11678;BME280;5895;41.950;24.372;2022-12-18T08:05:48;87629.06;;;7.54;100.00
11678;BME280;5895;41.950;24.372;2022-12-18T08:08:16;87636.00;;;7.54;100.00
11678;BME280;5895;41.950;24.372;2022-12-18T08:10:43;87645.16;;;7.56;100.00
11678;BME280;5895;41.950;24.372;2022-12-18T08:13:12;87645.94;;;7.57;100.00
11678;BME280;5895;41.950;24.372;2022-12-18T08:15:39;87639.75;;;7.51;100.00
11678;BME280;5895;41.950;24.372;2022-12-18T08:18:07;87640.53;;;7.52;100.00
11678;BME280;5895;41.950;24.372;2022-12-18T08:20:34;87641.97;;;7.54;100.00
11678;BME280;5895;41.950;24.372;2022-12-18T08:23:02;87647.56;;;7.58;100.00
11678;BME280;5895;41.950;24.372;2022-12-18T08:25:30;87649.94;;;7.59;100.00
11678;BME280;5895;41.950;24.372;2022-12-18T08:27:57;87649.56;;;7.62;100.00
11678;BME280;5895;41.950;24.372;2022-12-18T08:30:26;87645.81;;;7.65;100.00
11678;BME280;5895;41.950;24.372;2022-12-18T08:32:54;87655.16;;;7.66;100.00
11678;BME280;5895;41.950;24.372;2022-12-18T08:35:21;87648.97;;;7.67;100.00
11678;BME280;5895;41.950;24.372;2022-12-18T08:37:52;87652.78;;;7.71;100.00
11678;BME280;5895;41.950;24.372;2022-12-18T08:40:19;87649.03;;;7.74;100.00
11678;BME280;5895;41.950;24.372;2022-12-18T08:42:47;87646.66;;;7.79;100.00
11678;BME280;5895;41.950;24.372;2022-12-18T08:45:34;87642.53;;;7.84;100.00
11678;BME280;5895;41.950;24.372;2022-12-18T08:48:01;87642.16;;;7.87;100.00
11678;BME280;5895;41.950;24.372;2022-12-18T08:50:28;87639.81;;;7.92;100.00
11678;BME280;5895;41.950;24.372;2022-12-18T08:52:56;87645.00;;;7.99;100.00
11678;BME280;5895;41.950;24.372;2022-12-18T08:55:23;87642.66;;;8.04;100.00
11678;BME280;5895;41.950;24.372;2022-12-18T08:57:51;87640.66;;;8.06;100.00
11678;BME280;5895;41.950;24.372;2022-12-18T09:00:19;87639.06;;;8.05;100.00
11678;BME280;5895;41.950;24.372;2022-12-18T09:02:48;87631.09;;;8.07;100.00
11678;BME280;5895;41.950;24.372;2022-12-18T09:05:15;87640.25;;;8.03;100.00
11678;BME280;5895;41.950;24.372;2022-12-18T09:07:43;87638.03;;;8.00;100.00
11678;BME280;5895;41.950;24.372;2022-12-18T09:10:10;87642.97;;;7.94;100.00
11678;BME280;5895;41.950;24.372;2022-12-18T09:12:38;87640.41;;;7.94;100.00
11678;BME280;5895;41.950;24.372;2022-12-18T09:15:06;87636.81;;;7.95;100.00
11678;BME280;5895;41.950;24.372;2022-12-18T09:17:33;87645.00;;;7.99;100.00
11678;BME280;5895;41.950;24.372;2022-12-18T09:20:03;87640.06;;;8.04;100.00
11678;BME280;5895;41.950;24.372;2022-12-18T09:22:31;87632.69;;;8.08;100.00
11678;BME280;5895;41.950;24.372;2022-12-18T09:24:58;87636.31;;;8.13;100.00
11678;BME280;5895;41.950;24.372;2022-12-18T09:27:25;87641.91;;;8.17;100.00
11678;BME280;5895;41.950;24.372;2022-12-18T09:29:53;87626.81;;;8.20;100.00
11678;BME280;5895;41.950;24.372;2022-12-18T09:32:21;87633.78;;;8.27;100.00
11678;BME280;5895;41.950;24.372;2022-12-18T09:34:48;87635.00;;;8.31;100.00
11678;BME280;5895;41.950;24.372;2022-12-18T09:37:17;87640.78;;;8.33;100.00
11678;BME280;5895;41.950;24.372;2022-12-18T09:39:45;87635.59;;;8.33;100.00
11678;BME280;5895;41.950;24.372;2022-12-18T09:42:18;87633.25;;;8.38;100.00
11678;BME280;5895;41.950;24.372;2022-12-18T09:44:49;87632.47;;;8.37;100.00
11678;BME280;5895;41.950;24.372;2022-12-18T09:47:20;87632.81;;;8.34;100.00
11678;BME280;5895;41.950;24.372;2022-12-18T09:49:52;87637.38;;;8.32;100.00
11678;BME280;5895;41.950;24.372;2022-12-18T09:52:26;87638.38;;;8.31;100.00
11678;BME280;5895;41.950;24.372;2022-12-18T09:54:58;87641.75;;;8.25;100.00
11678;BME280;5895;41.950;24.372;2022-12-18T09:57:31;87638.75;;;8.21;100.00
11678;BME280;5895;41.950;24.372;2022-12-18T10:00:08;87637.31;;;8.19;100.00
11678;BME280;5895;41.950;24.372;2022-12-18T10:02:38;87636.34;;;8.20;100.00
11678;BME280;5895;41.950;24.372;2022-12-18T10:05:07;87637.94;;;8.21;100.00
11678;BME280;5895;41.950;24.372;2022-12-18T10:07:49;87625.38;;;8.18;100.00
11678;BME280;5895;41.950;24.372;2022-12-18T10:10:29;87637.94;;;8.21;100.00
11678;BME280;5895;41.950;24.372;2022-12-18T10:13:04;87629.56;;;8.19;100.00
11678;BME280;5895;41.950;24.372;2022-12-18T10:15:38;87636.34;;;8.20;100.00
11678;BME280;5895;41.950;24.372;2022-12-18T10:18:17;87640.53;;;8.21;100.00
11678;BME280;5895;41.950;24.372;2022-12-18T10:20:50;87633.78;;;8.20;100.00
11678;BME280;5895;41.950;24.372;2022-12-18T10:23:26;87628.38;;;8.15;100.00
11678;BME280;5895;41.950;24.372;2022-12-18T10:26:00;87634.72;;;8.12;100.00
11678;BME280;5895;41.950;24.372;2022-12-18T10:28:36;87636.69;;;8.04;100.00
11678;BME280;5895;41.950;24.372;2022-12-18T10:31:05;87640.63;;;8.00;100.00
11678;BME280;5895;41.950;24.372;2022-12-18T10:33:33;87634.66;;;7.99;100.00
11678;BME280;5895;41.950;24.372;2022-12-18T10:36:01;87632.44;;;7.96;100.00
11678;BME280;5895;41.950;24.372;2022-12-18T10:38:31;87641.00;;;7.96;100.00
11678;BME280;5895;41.950;24.372;2022-12-18T10:41:00;87642.97;;;7.94;100.00
11678;BME280;5895;41.950;24.372;2022-12-18T10:43:30;87636.81;;;7.95;100.00
11678;BME280;5895;41.950;24.372;2022-12-18T10:46:00;87642.97;;;7.94;100.00
11678;BME280;5895;41.950;24.372;2022-12-18T10:48:30;87637.44;;;7.98;100.00
11678;BME280;5895;41.950;24.372;2022-12-18T10:50:58;87639.41;;;7.95;100.00
11678;BME280;5895;41.950;24.372;2022-12-18T10:53:26;87635.22;;;7.94;100.00
11678;BME280;5895;41.950;24.372;2022-12-18T10:55:58;87639.81;;;7.92;100.00
11678;BME280;5895;41.950;24.372;2022-12-18T10:58:27;87633.03;;;7.91;100.00
11678;BME280;5895;41.950;24.372;2022-12-18T11:01:09;87625.88;;;7.93;100.00
11678;BME280;5895;41.950;24.372;2022-12-18T11:03:38;87630.25;;;7.93;100.00
11678;BME280;5895;41.950;24.372;2022-12-18T11:06:08;87634.63;;;7.92;100.00
11678;BME280;5895;41.950;24.372;2022-12-18T11:08:37;87631.44;;;7.90;100.00
11678;BME280;5895;41.950;24.372;2022-12-18T11:11:18;87631.44;;;7.90;100.00
11678;BME280;5895;41.950;24.372;2022-12-18T11:13:56;87630.47;;;7.91;100.00
11678;BME280;5895;41.950;24.372;2022-12-18T11:16:26;87636.59;;;7.90;100.00
11678;BME280;5895;41.950;24.372;2022-12-18T11:18:55;87640.16;;;7.89;100.00
11678;BME280;5895;41.950;24.372;2022-12-18T11:21:39;87636.59;;;7.90;100.00
11678;BME280;5895;41.950;24.372;2022-12-18T11:24:17;87633.84;;;7.92;100.00
11678;BME280;5895;41.950;24.372;2022-12-18T11:26:48;87632.66;;;7.94;100.00
11678;BME280;5895;41.950;24.372;2022-12-18T11:29:17;87635.03;;;7.96;100.00
11678;BME280;5895;41.950;24.372;2022-12-18T11:31:45;87637.44;;;7.98;100.00
11678;BME280;5895;41.950;24.372;2022-12-18T11:34:15;87638.03;;;8.00;100.00
11678;BME280;5895;41.950;24.372;2022-12-18T11:36:48;87639.63;;;8.01;100.00
11678;BME280;5895;41.950;24.372;2022-12-18T11:39:19;87644.81;;;8.01;100.00
11678;BME280;5895;41.950;24.372;2022-12-18T11:41:53;87639.84;;;7.99;100.00
11678;BME280;5895;41.950;24.372;2022-12-18T11:44:43;87637.84;;;8.01;100.00
11678;BME280;5895;41.950;24.372;2022-12-18T11:47:19;87640.06;;;8.04;100.00
11678;BME280;5895;41.950;24.372;2022-12-18T11:49:49;87633.91;;;8.05;100.00
11678;BME280;5895;41.950;24.372;2022-12-18T11:52:21;87628.34;;;8.08;100.00
11678;BME280;5895;41.950;24.372;2022-12-18T11:54:52;87627.94;;;8.11;100.00
11678;BME280;5895;41.950;24.372;2022-12-18T11:57:29;87622.41;;;8.14;100.00
11678;BME280;5895;41.950;24.372;2022-12-18T12:00:07;87623.22;;;8.15;100.00
11678;BME280;5895;41.950;24.372;2022-12-18T12:02:51;87625.59;;;8.16;100.00
11678;BME280;5895;41.950;24.372;2022-12-18T12:05:44;87624.00;;;8.15;100.00
11678;BME280;5895;41.950;24.372;2022-12-18T12:08:18;87619.63;;;8.16;100.00
11678;BME280;5895;41.950;24.372;2022-12-18T12:10:59;87624.19;;;8.14;100.00
11678;BME280;5895;41.950;24.372;2022-12-18T12:13:40;87630.97;;;8.15;100.00
11678;BME280;5895;41.950;24.372;2022-12-18T12:16:17;87627.75;;;8.13;100.00
11678;BME280;5895;41.950;24.372;2022-12-18T12:18:58;87635.28;;;8.08;100.00
11678;BME280;5895;41.950;24.372;2022-12-18T12:21:34;87634.06;;;7.97;100.00
11678;BME280;5895;41.950;24.372;2022-12-18T12:24:12;87629.69;;;7.98;100.00
11678;BME280;5895;41.950;24.372;2022-12-18T12:26:52;87640.16;;;7.89;100.00
11678;BME280;5895;41.950;24.372;2022-12-18T12:29:36;87637.97;;;7.86;100.00
11678;BME280;5895;41.950;24.372;2022-12-18T12:32:16;87637.34;;;7.84;100.00
11678;BME280;5895;41.950;24.372;2022-12-18T12:34:59;87643.16;;;7.86;100.00
11678;BME280;5895;41.950;24.372;2022-12-18T12:37:40;87644.13;;;7.85;100.00
11678;BME280;5895;41.950;24.372;2022-12-18T12:40:16;87642.16;;;7.87;100.00
11678;BME280;5895;41.950;24.372;2022-12-18T12:42:50;87646.34;;;7.88;100.00
11678;BME280;5895;41.950;24.372;2022-12-18T12:45:42;87649.28;;;7.85;100.00
11678;BME280;5895;41.950;24.372;2022-12-18T12:48:18;87651.28;;;7.83;100.00
11678;BME280;5895;41.950;24.372;2022-12-18T12:50:47;87654.25;;;7.80;100.00
11678;BME280;5895;41.950;24.372;2022-12-18T12:53:23;87656.84;;;7.80;100.00
11678;BME280;5895;41.950;24.372;2022-12-18T12:55:54;87652.03;;;7.77;100.00
11678;BME280;5895;41.950;24.372;2022-12-18T12:58:29;87666.13;;;7.75;100.00
11678;BME280;5895;41.950;24.372;2022-12-18T13:01:08;87668.28;;;7.71;100.00
11678;BME280;5895;41.950;24.372;2022-12-18T13:03:46;87664.91;;;7.71;100.00
11678;BME280;5895;41.950;24.372;2022-12-18T13:06:25;87668.66;;;7.68;100.00
11678;BME280;5895;41.950;24.372;2022-12-18T13:08:56;87665.47;;;7.66;100.00
11678;BME280;5895;41.950;24.372;2022-12-18T13:11:38;87664.25;;;7.62;100.00
11678;BME280;5895;41.950;24.372;2022-12-18T13:14:27;87659.47;;;7.59;100.00
11678;BME280;5895;41.950;24.372;2022-12-18T13:17:16;87667.00;;;7.54;100.00
11678;BME280;5895;41.950;24.372;2022-12-18T13:19:44;87668.94;;;7.52;100.00
11678;BME280;5895;41.950;24.372;2022-12-18T13:22:21;87666.75;;;7.49;100.00